African Highway — 3EOD8 — position and weather

sailwx.info

Track history (hours):
 
Tides and Currents Weather Stations Pressure Air Temp Water Temp Dewpoint Dewpoint Depression Visibility Wind Speed Wind Dir Waves Ship Positions

African Highway

Last reported at 2016-Jul-23 08:32 UTC. Time now 2016-Jul-23 09:13 UTC.
Position N 53°55' E 002°56'.

Length 154.5 m; beam 27.6 m.

Type: Ship. MMSI: 353633000.

Date/timePositionNaut miles runAvg speedWind from/ knotsBaromVisibWave heightAir tempDewpointWater temp
2016-Jul-23 08:32N 53°55' E 002°56'1614.3
2016-Jul-23 07:26N 53°58' E 003°22'4314.9
2016-Jul-23 04:33N 54°03' E 004°34'1615.7
2016-Jul-23 03:34N 54°07' E 005°00'1514.6
2016-Jul-23 02:34N 53°59' E 005°22'1615.5
2016-Jul-23 01:34N 53°55' E 005°47'1414.2
2016-Jul-23 00:34N 53°48' E 006°08'1312.7
2016-Jul-22 23:34N 53°38' E 006°21'1211.7
2016-Jul-22 22:33N 53°34' E 006°40'1312.7
2016-Jul-22 21:34N 53°25' E 006°56'8 8.1
2016-Jul-22 20:33N 53°20' E 007°05'3 2.8
2016-Jul-22 19:31N 53°20' E 007°10'0 0.0
2016-Jul-22 18:31N 53°20' E 007°10'0 0.0
2016-Jul-22 17:28N 53°20' E 007°10'0 0.0
2016-Jul-22 16:31N 53°20' E 007°10'0 0.0
2016-Jul-22 15:31N 53°20' E 007°10'0 0.0
2016-Jul-22 14:31N 53°20' E 007°10'0 0.0
2016-Jul-22 13:31N 53°20' E 007°10'0 0.0
2016-Jul-22 12:31N 53°20' E 007°10'0 0.0
2016-Jul-22 11:31N 53°20' E 007°10'0 0.0
2016-Jul-22 10:31N 53°20' E 007°10'0 0.0
2016-Jul-22 09:31N 53°20' E 007°10'0 0.0
2016-Jul-22 08:28N 53°20' E 007°10'0 0.0
2016-Jul-22 07:31N 53°20' E 007°10'0 0.0
2016-Jul-22 04:31N 53°20' E 007°10'0 0.0
2016-Jul-22 03:31N 53°20' E 007°10'0 0.0
2016-Jul-22 02:28N 53°20' E 007°10'0 0.0
2016-Jul-22 01:31N 53°20' E 007°10'0 0.0
2016-Jul-22 00:31N 53°20' E 007°10'0 0.0
2016-Jul-21 23:31N 53°20' E 007°10'0 0.0
2016-Jul-21 22:31N 53°20' E 007°10'0 0.0
2016-Jul-21 21:31N 53°20' E 007°10'0 0.0
2016-Jul-21 20:31N 53°20' E 007°10'0 0.0
2016-Jul-21 19:31N 53°20' E 007°10'0 0.0
2016-Jul-21 18:31N 53°20' E 007°10'0 0.1
2016-Jul-21 17:33N 53°20' E 007°10'7 6.8
2016-Jul-21 16:34N 53°21' E 006°59'1312.6
2016-Jul-21 15:33N 53°31' E 006°46'1312.5
2016-Jul-21 14:33N 53°37' E 006°27'1010.1
2016-Jul-21 13:33N 53°38' E 006°10'1414.1
2016-Jul-21 12:33N 53°36' E 005°47'1514.7
2016-Jul-21 11:33N 53°32' E 005°23'1515.3
2016-Jul-21 10:33N 53°27' E 004°58'1414.4
2016-Jul-21 09:33N 53°18' E 004°39'1515.5
2016-Jul-21 08:33N 53°05' E 004°26'1615.7
2016-Jul-21 07:33N 52°51' E 004°13'1615.7
2016-Jul-21 06:33N 52°40' E 003°54'1616.2
2016-Jul-21 05:32N 52°30' E 003°33'1616.3
2016-Jul-21 04:33N 52°21' E 003°12'1716.6
2016-Jul-21 03:33N 52°11' E 002°49'1717.2
2016-Jul-21 02:32N 51°59' E 002°30'1717.2
2016-Jul-21 01:34N 51°47' E 002°10'1717.0
2016-Jul-21 00:34N 51°36' E 001°50'1515.1
2016-Jul-20 23:34N 51°26' E 001°30'1110.5
2016-Jul-20 22:34N 51°29' E 001°14'1212.0
2016-Jul-20 21:34N 51°29' E 000°55'7 6.8
2016-Jul-20 20:33N 51°26' E 000°44'0 0.0
2016-Jul-20 19:33N 51°26' E 000°44'0 0.0
2016-Jul-20 18:33N 51°26' E 000°44'0 0.0
2016-Jul-20 17:33N 51°26' E 000°44'0 0.0
2016-Jul-20 16:33N 51°26' E 000°44'0 0.0
2016-Jul-20 15:30N 51°26' E 000°44'0 0.0
2016-Jul-20 14:30N 51°26' E 000°44'0 0.0
2016-Jul-20 13:33N 51°26' E 000°44'0 0.0
2016-Jul-20 12:30N 51°26' E 000°44'0 0.0
2016-Jul-20 11:30N 51°26' E 000°44'1 1.2
2016-Jul-20 10:34N 51°27' E 000°45'1413.9
2016-Jul-20 09:34N 51°29' E 001°07'1414.0
2016-Jul-20 08:34N 51°26' E 001°29'4 3.7
2016-Jul-20 07:34N 51°28' E 001°34'1313.5
2016-Jul-20 06:34N 51°36' E 001°51'1515.0
2016-Jul-20 05:34N 51°47' E 002°09'1414.0
2016-Jul-20 04:33N 51°57' E 002°24'1413.5
2016-Jul-20 03:33N 52°07' E 002°39'3313.2
2016-Jul-20 01:05N 52°30' E 003°18'814.0
2016-Jul-20 00:33N 52°35' E 003°26'1514.9
2016-Jul-19 23:34N 52°47' E 003°41'1515.4
2016-Jul-19 22:34N 52°58' E 003°59'1615.7
2016-Jul-19 21:34N 53°08' E 004°19'1514.7
2016-Jul-19 20:34N 53°20' E 004°32'1313.3
2016-Jul-19 19:33N 53°31' E 004°46'1313.5
2016-Jul-19 18:33N 53°35' E 005°08'1313.3
2016-Jul-19 17:33N 53°39' E 005°29'1414.2
2016-Jul-19 16:33N 53°43' E 005°52'1111.0
2016-Jul-19 15:33N 53°40' E 006°09'1313.4
2016-Jul-19 14:33N 53°37' E 006°32'1717.3
2016-Jul-19 13:34N 53°26' E 006°55'1111.5
2016-Jul-19 12:34N 53°20' E 007°11'0 0.0
2016-Jul-19 11:31N 53°20' E 007°11'0 0.0
2016-Jul-19 10:31N 53°20' E 007°11'0 0.0
2016-Jul-19 09:25N 53°20' E 007°11'0 0.0
2016-Jul-19 08:31N 53°20' E 007°11'0 0.0
2016-Jul-19 07:31N 53°20' E 007°11'0 0.0
2016-Jul-19 04:28N 53°20' E 007°11'0 0.0
2016-Jul-19 03:28N 53°20' E 007°11'0 0.0
2016-Jul-19 02:31N 53°20' E 007°11'0 0.0
2016-Jul-19 01:31N 53°20' E 007°11'0 0.0
2016-Jul-19 00:31N 53°20' E 007°11'0 0.0
2016-Jul-18 23:31N 53°20' E 007°11'0 0.2
2016-Jul-18 22:33N 53°20' E 007°11'7 7.2
2016-Jul-18 21:33N 53°22' E 006°59'1616.3
2016-Jul-18 20:33N 53°34' E 006°40'1313.3
2016-Jul-18 19:33N 53°38' E 006°19'5 5.0
2016-Jul-18 18:33N 53°37' E 006°11'1313.1
2016-Jul-18 17:33N 53°46' E 005°55'1616.3
2016-Jul-18 16:33N 53°52' E 005°28'1615.8
2016-Jul-18 15:33N 53°57' E 005°03'1515.3
2016-Jul-18 14:33N 53°60' E 004°38'1515.3
2016-Jul-18 13:33N 53°58' E 004°12'1515.1
2016-Jul-18 12:34N 53°56' E 003°47'1515.0
2016-Jul-18 11:33N 53°54' E 003°21'1414.3
2016-Jul-18 10:33N 53°55' E 002°57'1515.3
2016-Jul-18 09:33N 53°52' E 002°31'1615.5
2016-Jul-18 08:33N 53°49' E 002°05'1615.7
2016-Jul-18 07:32N 53°47' E 001°38'1916.0
2016-Jul-18 06:22N 53°40' E 001°09'1316.0
2016-Jul-18 05:33N 53°36' E 000°49'1615.7
2016-Jul-18 04:33N 53°32' E 000°23'1111.0
2016-Jul-18 03:33N 53°34' E 000°05'5 5.1
2016-Jul-18 02:32N 53°35' W 000°04'0 0.0
2016-Jul-18 01:32N 53°35' W 000°04'0 0.0
2016-Jul-18 00:32N 53°35' W 000°04'0 0.0
2016-Jul-17 23:32N 53°35' W 000°04'0 0.0
2016-Jul-17 22:32N 53°35' W 000°04'0 0.0
2016-Jul-17 21:32N 53°35' W 000°04'0 0.0
2016-Jul-17 20:32N 53°35' W 000°04'0 0.0
2016-Jul-17 19:32N 53°35' W 000°04'0 0.0
2016-Jul-17 18:32N 53°35' W 000°04'0 0.0
2016-Jul-17 17:32N 53°35' W 000°04'0 0.0
2016-Jul-17 16:32N 53°35' W 000°04'0 0.0
2016-Jul-17 15:32N 53°35' W 000°04'0 0.0
2016-Jul-17 14:32N 53°35' W 000°04'0 0.0
2016-Jul-17 13:32N 53°35' W 000°04'0 0.0
2016-Jul-17 12:32N 53°35' W 000°04'0 0.0
2016-Jul-17 11:32N 53°35' W 000°04'0 0.0
2016-Jul-17 10:32N 53°35' W 000°04'0 0.0
2016-Jul-17 09:32N 53°35' W 000°04'0 0.0
2016-Jul-17 08:32N 53°35' W 000°04'0 0.0
2016-Jul-17 07:32N 53°35' W 000°04'0 0.0
2016-Jul-17 06:29N 53°35' W 000°04'0 0.0
2016-Jul-17 04:32N 53°35' W 000°04'0 0.0
2016-Jul-17 03:33N 53°35' W 000°04'5 5.1
2016-Jul-17 02:34N 53°35' E 000°05'9 9.4
2016-Jul-17 01:33N 53°33' E 000°20'9 9.4
2016-Jul-17 00:33N 53°34' E 000°36'1010.2
2016-Jul-16 23:33N 53°37' E 000°53'1210.3
2016-Jul-16 22:20N 53°41' E 001°13'127 7.0
2016-Jul-16 04:16N 54°04' E 004°44'1013.6
2016-Jul-16 03:33N 54°05' E 005°00'1212.1
2016-Jul-16 02:33N 54°00' E 005°19'1414.0
2016-Jul-16 01:33N 53°56' E 005°42'1414.3
2016-Jul-16 00:33N 53°52' E 006°05'1414.0
2016-Jul-15 23:33N 53°40' E 006°19'1313.2
2016-Jul-15 22:33N 53°35' E 006°39'1616.1
2016-Jul-15 21:33N 53°23' E 006°58'8 8.0
2016-Jul-15 20:31N 53°20' E 007°11'0 0.0
2016-Jul-15 19:31N 53°20' E 007°11'0 0.0
2016-Jul-15 18:31N 53°20' E 007°11'0 0.0
2016-Jul-15 17:31N 53°20' E 007°11'0 0.0
2016-Jul-15 16:28N 53°20' E 007°11'0 0.0
2016-Jul-15 15:31N 53°20' E 007°11'0 0.0
2016-Jul-15 14:31N 53°20' E 007°11'0 0.0
2016-Jul-15 13:31N 53°20' E 007°11'0 0.0
2016-Jul-15 12:31N 53°20' E 007°11'0 0.0
2016-Jul-15 11:31N 53°20' E 007°11'0 0.0
2016-Jul-15 10:31N 53°20' E 007°11'0 0.0
2016-Jul-15 09:31N 53°20' E 007°11'0 0.0
2016-Jul-15 08:31N 53°20' E 007°11'0 0.0
2016-Jul-15 07:31N 53°20' E 007°11'3 3.1
2016-Jul-15 06:33N 53°20' E 007°06'1313.3
2016-Jul-15 05:33N 53°29' E 006°50'1615.5
2016-Jul-15 04:33N 53°37' E 006°27'1212.3
2016-Jul-15 03:34N 53°38' E 006°06'1413.6
2016-Jul-15 02:34N 53°48' E 005°50'1615.8
2016-Jul-15 01:34N 53°53' E 005°25'1615.6
2016-Jul-15 00:33N 53°58' E 004°60'11914.6
2016-Jul-14 16:25N 53°47' E 001°38'1715.2
2016-Jul-14 15:17N 53°40' E 001°12'1216.2
2016-Jul-14 14:33N 53°35' E 000°53'1515.5
2016-Jul-14 13:33N 53°32' E 000°28'1211.8
2016-Jul-14 12:33N 53°33' E 000°08'7 7.4
2016-Jul-14 11:33N 53°35' W 000°04'0 0.0
2016-Jul-14 10:32N 53°35' W 000°04'0 0.0
2016-Jul-14 09:32N 53°35' W 000°04'0 0.0
2016-Jul-14 08:32N 53°35' W 000°04'0 0.0
2016-Jul-14 07:32N 53°35' W 000°04'0 0.0
2016-Jul-14 06:32N 53°35' W 000°04'0 0.0
2016-Jul-14 05:32N 53°35' W 000°04'0 0.0
2016-Jul-14 04:32N 53°35' W 000°04'0 0.0
2016-Jul-14 03:32N 53°35' W 000°04'0 0.0
2016-Jul-14 02:33N 53°35' W 000°04'0 0.0
2016-Jul-14 01:32N 53°35' W 000°04'0 0.3
2016-Jul-14 00:34N 53°35' W 000°04'5 5.0
2016-Jul-13 23:33N 53°35' E 000°05'9 8.7
2016-Jul-13 22:33N 53°33' E 000°19'7 6.7
2016-Jul-13 21:33N 53°34' E 000°31'9 8.7
2016-Jul-13 20:32N 53°36' E 000°45'  
Track history (hours):
 
Tides and Currents Weather Stations Pressure Air Temp Water Temp Dewpoint Dewpoint Depression Visibility Wind Speed Wind Dir Waves Ship Positions

African Highway

Last reported at 2016-Jul-23 08:32 UTC. Time now 2016-Jul-23 09:13 UTC.
Position N 53°55' E 002°56'.

Length 154.5 m; beam 27.6 m.

Type: Ship. MMSI: 353633000.

Date/timePositionNaut miles runAvg speedWind from/ knotsBaromVisibWave heightAir tempDewpointWater temp
2016-Jul-23 08:32N 53°55' E 002°56'1614.3
2016-Jul-23 07:26N 53°58' E 003°22'4314.9
2016-Jul-23 04:33N 54°03' E 004°34'1615.7
2016-Jul-23 03:34N 54°07' E 005°00'1514.6
2016-Jul-23 02:34N 53°59' E 005°22'1615.5
2016-Jul-23 01:34N 53°55' E 005°47'1414.2
2016-Jul-23 00:34N 53°48' E 006°08'1312.7
2016-Jul-22 23:34N 53°38' E 006°21'1211.7
2016-Jul-22 22:33N 53°34' E 006°40'1312.7
2016-Jul-22 21:34N 53°25' E 006°56'8 8.1
2016-Jul-22 20:33N 53°20' E 007°05'3 2.8
2016-Jul-22 19:31N 53°20' E 007°10'0 0.0
2016-Jul-22 18:31N 53°20' E 007°10'0 0.0
2016-Jul-22 17:28N 53°20' E 007°10'0 0.0
2016-Jul-22 16:31N 53°20' E 007°10'0 0.0
2016-Jul-22 15:31N 53°20' E 007°10'0 0.0
2016-Jul-22 14:31N 53°20' E 007°10'0 0.0
2016-Jul-22 13:31N 53°20' E 007°10'0 0.0
2016-Jul-22 12:31N 53°20' E 007°10'0 0.0
2016-Jul-22 11:31N 53°20' E 007°10'0 0.0
2016-Jul-22 10:31N 53°20' E 007°10'0 0.0
2016-Jul-22 09:31N 53°20' E 007°10'0 0.0
2016-Jul-22 08:28N 53°20' E 007°10'0 0.0
2016-Jul-22 07:31N 53°20' E 007°10'0 0.0
2016-Jul-22 04:31N 53°20' E 007°10'0 0.0
2016-Jul-22 03:31N 53°20' E 007°10'0 0.0
2016-Jul-22 02:28N 53°20' E 007°10'0 0.0
2016-Jul-22 01:31N 53°20' E 007°10'0 0.0
2016-Jul-22 00:31N 53°20' E 007°10'0 0.0
2016-Jul-21 23:31N 53°20' E 007°10'0 0.0
2016-Jul-21 22:31N 53°20' E 007°10'0 0.0
2016-Jul-21 21:31N 53°20' E 007°10'0 0.0
2016-Jul-21 20:31N 53°20' E 007°10'0 0.0
2016-Jul-21 19:31N 53°20' E 007°10'0 0.0
2016-Jul-21 18:31N 53°20' E 007°10'0 0.1
2016-Jul-21 17:33N 53°20' E 007°10'7 6.8
2016-Jul-21 16:34N 53°21' E 006°59'1312.6
2016-Jul-21 15:33N 53°31' E 006°46'1312.5
2016-Jul-21 14:33N 53°37' E 006°27'1010.1
2016-Jul-21 13:33N 53°38' E 006°10'1414.1
2016-Jul-21 12:33N 53°36' E 005°47'1514.7
2016-Jul-21 11:33N 53°32' E 005°23'1515.3
2016-Jul-21 10:33N 53°27' E 004°58'1414.4
2016-Jul-21 09:33N 53°18' E 004°39'1515.5
2016-Jul-21 08:33N 53°05' E 004°26'1615.7
2016-Jul-21 07:33N 52°51' E 004°13'1615.7
2016-Jul-21 06:33N 52°40' E 003°54'1616.2
2016-Jul-21 05:32N 52°30' E 003°33'1616.3
2016-Jul-21 04:33N 52°21' E 003°12'1716.6
2016-Jul-21 03:33N 52°11' E 002°49'1717.2
2016-Jul-21 02:32N 51°59' E 002°30'1717.2
2016-Jul-21 01:34N 51°47' E 002°10'1717.0
2016-Jul-21 00:34N 51°36' E 001°50'1515.1
2016-Jul-20 23:34N 51°26' E 001°30'1110.5
2016-Jul-20 22:34N 51°29' E 001°14'1212.0
2016-Jul-20 21:34N 51°29' E 000°55'7 6.8
2016-Jul-20 20:33N 51°26' E 000°44'0 0.0
2016-Jul-20 19:33N 51°26' E 000°44'0 0.0
2016-Jul-20 18:33N 51°26' E 000°44'0 0.0
2016-Jul-20 17:33N 51°26' E 000°44'0 0.0
2016-Jul-20 16:33N 51°26' E 000°44'0 0.0
2016-Jul-20 15:30N 51°26' E 000°44'0 0.0
2016-Jul-20 14:30N 51°26' E 000°44'0 0.0
2016-Jul-20 13:33N 51°26' E 000°44'0 0.0
2016-Jul-20 12:30N 51°26' E 000°44'0 0.0
2016-Jul-20 11:30N 51°26' E 000°44'1 1.2
2016-Jul-20 10:34N 51°27' E 000°45'1413.9
2016-Jul-20 09:34N 51°29' E 001°07'1414.0
2016-Jul-20 08:34N 51°26' E 001°29'4 3.7
2016-Jul-20 07:34N 51°28' E 001°34'1313.5
2016-Jul-20 06:34N 51°36' E 001°51'1515.0
2016-Jul-20 05:34N 51°47' E 002°09'1414.0
2016-Jul-20 04:33N 51°57' E 002°24'1413.5
2016-Jul-20 03:33N 52°07' E 002°39'3313.2
2016-Jul-20 01:05N 52°30' E 003°18'814.0
2016-Jul-20 00:33N 52°35' E 003°26'1514.9
2016-Jul-19 23:34N 52°47' E 003°41'1515.4
2016-Jul-19 22:34N 52°58' E 003°59'1615.7
2016-Jul-19 21:34N 53°08' E 004°19'1514.7
2016-Jul-19 20:34N 53°20' E 004°32'1313.3
2016-Jul-19 19:33N 53°31' E 004°46'1313.5
2016-Jul-19 18:33N 53°35' E 005°08'1313.3
2016-Jul-19 17:33N 53°39' E 005°29'1414.2
2016-Jul-19 16:33N 53°43' E 005°52'1111.0
2016-Jul-19 15:33N 53°40' E 006°09'1313.4
2016-Jul-19 14:33N 53°37' E 006°32'1717.3
2016-Jul-19 13:34N 53°26' E 006°55'1111.5
2016-Jul-19 12:34N 53°20' E 007°11'0 0.0
2016-Jul-19 11:31N 53°20' E 007°11'0 0.0
2016-Jul-19 10:31N 53°20' E 007°11'0 0.0
2016-Jul-19 09:25N 53°20' E 007°11'0 0.0
2016-Jul-19 08:31N 53°20' E 007°11'0 0.0
2016-Jul-19 07:31N 53°20' E 007°11'0 0.0
2016-Jul-19 04:28N 53°20' E 007°11'0 0.0
2016-Jul-19 03:28N 53°20' E 007°11'0 0.0
2016-Jul-19 02:31N 53°20' E 007°11'0 0.0
2016-Jul-19 01:31N 53°20' E 007°11'0 0.0
2016-Jul-19 00:31N 53°20' E 007°11'0 0.0
2016-Jul-18 23:31N 53°20' E 007°11'0 0.2
2016-Jul-18 22:33N 53°20' E 007°11'7 7.2
2016-Jul-18 21:33N 53°22' E 006°59'1616.3
2016-Jul-18 20:33N 53°34' E 006°40'1313.3
2016-Jul-18 19:33N 53°38' E 006°19'5 5.0
2016-Jul-18 18:33N 53°37' E 006°11'1313.1
2016-Jul-18 17:33N 53°46' E 005°55'1616.3
2016-Jul-18 16:33N 53°52' E 005°28'1615.8
2016-Jul-18 15:33N 53°57' E 005°03'1515.3
2016-Jul-18 14:33N 53°60' E 004°38'1515.3
2016-Jul-18 13:33N 53°58' E 004°12'1515.1
2016-Jul-18 12:34N 53°56' E 003°47'1515.0
2016-Jul-18 11:33N 53°54' E 003°21'1414.3
2016-Jul-18 10:33N 53°55' E 002°57'1515.3
2016-Jul-18 09:33N 53°52' E 002°31'1615.5
2016-Jul-18 08:33N 53°49' E 002°05'1615.7
2016-Jul-18 07:32N 53°47' E 001°38'1916.0
2016-Jul-18 06:22N 53°40' E 001°09'1316.0
2016-Jul-18 05:33N 53°36' E 000°49'1615.7
2016-Jul-18 04:33N 53°32' E 000°23'1111.0
2016-Jul-18 03:33N 53°34' E 000°05'5 5.1
2016-Jul-18 02:32N 53°35' W 000°04'0 0.0
2016-Jul-18 01:32N 53°35' W 000°04'0 0.0
2016-Jul-18 00:32N 53°35' W 000°04'0 0.0
2016-Jul-17 23:32N 53°35' W 000°04'0 0.0
2016-Jul-17 22:32N 53°35' W 000°04'0 0.0
2016-Jul-17 21:32N 53°35' W 000°04'0 0.0
2016-Jul-17 20:32N 53°35' W 000°04'0 0.0
2016-Jul-17 19:32N 53°35' W 000°04'0 0.0
2016-Jul-17 18:32N 53°35' W 000°04'0 0.0
2016-Jul-17 17:32N 53°35' W 000°04'0 0.0
2016-Jul-17 16:32N 53°35' W 000°04'0 0.0
2016-Jul-17 15:32N 53°35' W 000°04'0 0.0
2016-Jul-17 14:32N 53°35' W 000°04'0 0.0
2016-Jul-17 13:32N 53°35' W 000°04'0 0.0
2016-Jul-17 12:32N 53°35' W 000°04'0 0.0
2016-Jul-17 11:32N 53°35' W 000°04'0 0.0
2016-Jul-17 10:32N 53°35' W 000°04'0 0.0
2016-Jul-17 09:32N 53°35' W 000°04'0 0.0
2016-Jul-17 08:32N 53°35' W 000°04'0 0.0
2016-Jul-17 07:32N 53°35' W 000°04'0 0.0
2016-Jul-17 06:29N 53°35' W 000°04'0 0.0
2016-Jul-17 04:32N 53°35' W 000°04'0 0.0
2016-Jul-17 03:33N 53°35' W 000°04'5 5.1
2016-Jul-17 02:34N 53°35' E 000°05'9 9.4
2016-Jul-17 01:33N 53°33' E 000°20'9 9.4
2016-Jul-17 00:33N 53°34' E 000°36'1010.2
2016-Jul-16 23:33N 53°37' E 000°53'1210.3
2016-Jul-16 22:20N 53°41' E 001°13'127 7.0
2016-Jul-16 04:16N 54°04' E 004°44'1013.6
2016-Jul-16 03:33N 54°05' E 005°00'1212.1
2016-Jul-16 02:33N 54°00' E 005°19'1414.0
2016-Jul-16 01:33N 53°56' E 005°42'1414.3
2016-Jul-16 00:33N 53°52' E 006°05'1414.0
2016-Jul-15 23:33N 53°40' E 006°19'1313.2
2016-Jul-15 22:33N 53°35' E 006°39'1616.1
2016-Jul-15 21:33N 53°23' E 006°58'8 8.0
2016-Jul-15 20:31N 53°20' E 007°11'0 0.0
2016-Jul-15 19:31N 53°20' E 007°11'0 0.0
2016-Jul-15 18:31N 53°20' E 007°11'0 0.0
2016-Jul-15 17:31N 53°20' E 007°11'0 0.0
2016-Jul-15 16:28N 53°20' E 007°11'0 0.0
2016-Jul-15 15:31N 53°20' E 007°11'0 0.0
2016-Jul-15 14:31N 53°20' E 007°11'0 0.0
2016-Jul-15 13:31N 53°20' E 007°11'0 0.0
2016-Jul-15 12:31N 53°20' E 007°11'0 0.0
2016-Jul-15 11:31N 53°20' E 007°11'0 0.0
2016-Jul-15 10:31N 53°20' E 007°11'0 0.0
2016-Jul-15 09:31N 53°20' E 007°11'0 0.0
2016-Jul-15 08:31N 53°20' E 007°11'0 0.0
2016-Jul-15 07:31N 53°20' E 007°11'3 3.1
2016-Jul-15 06:33N 53°20' E 007°06'1313.3
2016-Jul-15 05:33N 53°29' E 006°50'1615.5
2016-Jul-15 04:33N 53°37' E 006°27'1212.3
2016-Jul-15 03:34N 53°38' E 006°06'1413.6
2016-Jul-15 02:34N 53°48' E 005°50'1615.8
2016-Jul-15 01:34N 53°53' E 005°25'1615.6
2016-Jul-15 00:33N 53°58' E 004°60'11914.6
2016-Jul-14 16:25N 53°47' E 001°38'1715.2
2016-Jul-14 15:17N 53°40' E 001°12'1216.2
2016-Jul-14 14:33N 53°35' E 000°53'1515.5
2016-Jul-14 13:33N 53°32' E 000°28'1211.8
2016-Jul-14 12:33N 53°33' E 000°08'7 7.4
2016-Jul-14 11:33N 53°35' W 000°04'0 0.0
2016-Jul-14 10:32N 53°35' W 000°04'0 0.0
2016-Jul-14 09:32N 53°35' W 000°04'0 0.0
2016-Jul-14 08:32N 53°35' W 000°04'0 0.0
2016-Jul-14 07:32N 53°35' W 000°04'0 0.0
2016-Jul-14 06:32N 53°35' W 000°04'0 0.0
2016-Jul-14 05:32N 53°35' W 000°04'0 0.0
2016-Jul-14 04:32N 53°35' W 000°04'0 0.0
2016-Jul-14 03:32N 53°35' W 000°04'0 0.0
2016-Jul-14 02:33N 53°35' W 000°04'0 0.0
2016-Jul-14 01:32N 53°35' W 000°04'0 0.3
2016-Jul-14 00:34N 53°35' W 000°04'5 5.0
2016-Jul-13 23:33N 53°35' E 000°05'9 8.7
2016-Jul-13 22:33N 53°33' E 000°19'7 6.7
2016-Jul-13 21:33N 53°34' E 000°31'9 8.7
2016-Jul-13 20:32N 53°36' E 000°45'  

Dump ship's entire track history